Time;durP1;ratioP1;P1;durP2;ratioP2;P2;SDS_P1;SDS_P2;PMS_P1;PMS_P2;Temp;Humidity;BMP_temperature;BMP_pressure;BME280_temperature;BME280_humidity;BME280_pressure;Samples;Min_cycle;Max_cycle;Signal;HPM_P1;HPM_P2
2021/05/31 00:01:05;;;;;;;12.43;9.07;;;;;;;;;;4946136;29;20456;-96
2021/05/31 00:03:31;;;;;;;11.40;9.37;;;;;;;;;;4939745;29;20477;-96
2021/05/31 00:05:57;;;;;;;11.10;8.83;;;;;;;;;;4952922;29;20467;-95
2021/05/31 00:08:24;;;;;;;9.90;8.10;;;;;;;;;;4939025;29;20451;-96
2021/05/31 00:10:50;;;;;;;13.07;8.50;;;;;;;;;;4932762;29;20465;-96
2021/05/31 00:13:17;;;;;;;10.27;9.13;;;;;;;;;;4942850;29;20495;-96
2021/05/31 00:15:45;;;;;;;9.17;8.00;;;;;;;;;;4937745;29;20468;-96
2021/05/31 00:18:11;;;;;;;9.90;8.47;;;;;;;;;;4930152;29;20530;-95
2021/05/31 00:20:37;;;;;;;12.03;9.40;;;;;;;;;;4941046;29;20955;-96
2021/05/31 00:23:03;;;;;;;9.47;8.57;;;;;;;;;;4933009;29;20456;-96
2021/05/31 00:25:29;;;;;;;10.50;8.70;;;;;;;;;;4935230;29;20456;-94
2021/05/31 00:27:55;;;;;;;10.43;9.03;;;;;;;;;;4929343;29;20437;-96
2021/05/31 00:30:23;;;;;;;9.50;8.47;;;;;;;;;;4935205;29;20456;-96
2021/05/31 00:32:51;;;;;;;10.10;9.00;;;;;;;;;;4939696;29;20476;-96
2021/05/31 00:35:17;;;;;;;10.40;9.30;;;;;;;;;;4931240;29;20472;-94
2021/05/31 00:37:43;;;;;;;11.63;9.47;;;;;;;;;;4928516;29;20869;-93
2021/05/31 00:40:09;;;;;;;10.10;8.90;;;;;;;;;;4926775;29;20452;-95
2021/05/31 00:42:36;;;;;;;10.00;8.17;;;;;;;;;;4946666;29;20455;-94
2021/05/31 00:45:02;;;;;;;9.60;8.60;;;;;;;;;;4933345;29;20492;-94
2021/05/31 00:47:28;;;;;;;10.17;9.13;;;;;;;;;;4928825;29;20885;-93
2021/05/31 00:49:57;;;;;;;10.83;9.73;;;;;;;;;;4939217;29;20464;-94
2021/05/31 00:52:23;;;;;;;10.17;8.90;;;;;;;;;;4929222;29;20479;-94
2021/05/31 00:54:49;;;;;;;9.77;8.77;;;;;;;;;;4927024;29;20472;-94
2021/05/31 00:57:15;;;;;;;12.30;9.97;;;;;;;;;;4928657;29;20481;-94
2021/05/31 00:59:41;;;;;;;10.50;9.40;;;;;;;;;;4927273;29;20503;-93
2021/05/31 01:02:07;;;;;;;10.67;9.63;;;;;;;;;;4942965;29;20462;-92
2021/05/31 01:04:33;;;;;;;10.60;9.50;;;;;;;;;;4926437;29;20469;-93
2021/05/31 01:07:03;;;;;;;11.13;9.50;;;;;;;;;;4928721;29;20467;-93
2021/05/31 01:09:34;;;;;;;10.60;9.50;;;;;;;;;;4928704;29;20461;-93
2021/05/31 01:12:05;;;;;;;9.93;8.87;;;;;;;;;;4926015;29;20551;-93
2021/05/31 01:14:35;;;;;;;11.20;10.00;;;;;;;;;;4928472;29;20471;-93
2021/05/31 01:17:06;;;;;;;11.70;10.07;;;;;;;;;;4942292;29;20470;-93
2021/05/31 01:19:54;;;;;;;10.30;9.03;;;;;;;;;;4945472;29;20503;-93
2021/05/31 01:22:21;;;;;;;13.20;9.30;;;;;;;;;;4940710;29;20460;-92
2021/05/31 01:24:52;;;;;;;10.77;9.53;;;;;;;;;;4933091;29;20829;-93
2021/05/31 01:27:26;;;;;;;12.40;9.07;;;;;;;;;;4924995;29;20485;-92
2021/05/31 01:29:56;;;;;;;13.80;10.10;;;;;;;;;;4925330;29;20952;-93
2021/05/31 01:32:23;;;;;;;12.00;10.00;;;;;;;;;;4923808;29;20457;-92
2021/05/31 01:34:51;;;;;;;11.20;10.00;;;;;;;;;;4926320;29;20460;-93
2021/05/31 01:37:18;;;;;;;12.50;10.10;;;;;;;;;;4928175;29;20487;-94
2021/05/31 01:39:45;;;;;;;11.03;9.90;;;;;;;;;;4944449;29;20510;-93
2021/05/31 01:42:12;;;;;;;9.30;8.40;;;;;;;;;;4935086;29;20471;-94
2021/05/31 01:44:38;;;;;;;10.03;9.00;;;;;;;;;;4935515;29;20491;-93
2021/05/31 01:47:06;;;;;;;12.13;10.07;;;;;;;;;;4938393;29;20512;-93
2021/05/31 01:49:32;;;;;;;10.50;9.40;;;;;;;;;;4927310;29;20523;-93
2021/05/31 01:51:59;;;;;;;19.53;11.63;;;;;;;;;;4924759;29;20483;-95
2021/05/31 01:54:25;;;;;;;12.13;9.97;;;;;;;;;;4927185;29;20472;-93
2021/05/31 01:56:52;;;;;;;11.07;9.83;;;;;;;;;;4934829;29;20451;-93
2021/05/31 01:59:18;;;;;;;11.17;9.97;;;;;;;;;;4929073;29;20500;-94
2021/05/31 02:01:46;;;;;;;12.00;10.63;;;;;;;;;;4937548;29;20525;-95
2021/05/31 02:04:13;;;;;;;12.50;10.00;;;;;;;;;;4925627;29;20468;-94
2021/05/31 02:06:39;;;;;;;11.40;10.20;;;;;;;;;;4927221;29;20957;-95
2021/05/31 02:09:05;;;;;;;13.10;10.50;;;;;;;;;;4930994;29;20927;-95
2021/05/31 02:11:37;;;;;;;12.27;10.33;;;;;;;;;;4940540;29;20507;-94
2021/05/31 02:14:06;;;;;;;10.70;9.60;;;;;;;;;;4920748;29;20461;-96
2021/05/31 02:16:35;;;;;;;11.90;10.10;;;;;;;;;;4942417;29;20483;-96
2021/05/31 02:19:02;;;;;;;15.63;11.43;;;;;;;;;;4935114;29;20570;-95
2021/05/31 02:21:31;;;;;;;10.77;9.20;;;;;;;;;;4942135;29;20508;-95
2021/05/31 02:23:57;;;;;;;11.90;10.60;;;;;;;;;;4931434;29;20477;-95
2021/05/31 02:26:27;;;;;;;12.67;9.60;;;;;;;;;;4935607;29;20452;-93
2021/05/31 02:28:53;;;;;;;16.77;9.87;;;;;;;;;;4926540;29;20471;-94
2021/05/31 02:31:19;;;;;;;12.63;9.90;;;;;;;;;;4927272;29;20463;-95
2021/05/31 02:33:46;;;;;;;12.33;10.07;;;;;;;;;;4933260;29;20461;-95
2021/05/31 02:36:12;;;;;;;10.13;9.13;;;;;;;;;;4928128;29;20460;-96
2021/05/31 02:38:41;;;;;;;16.57;10.10;;;;;;;;;;4928370;29;20495;-96
2021/05/31 02:41:07;;;;;;;14.27;10.90;;;;;;;;;;4926375;29;20471;-96
2021/05/31 02:43:33;;;;;;;13.40;9.93;;;;;;;;;;4929408;29;20447;-95
2021/05/31 02:46:00;;;;;;;12.63;10.00;;;;;;;;;;4940959;29;20498;-95
2021/05/31 02:48:26;;;;;;;11.13;9.93;;;;;;;;;;4946256;29;20475;-95
2021/05/31 02:50:56;;;;;;;10.37;9.27;;;;;;;;;;4930508;29;20467;-95
2021/05/31 02:53:22;;;;;;;11.23;10.03;;;;;;;;;;4944473;29;20490;-96
2021/05/31 02:55:49;;;;;;;11.00;9.83;;;;;;;;;;4931258;29;20488;-96
2021/05/31 02:58:15;;;;;;;13.47;10.77;;;;;;;;;;4926146;29;20515;-95
2021/05/31 03:00:41;;;;;;;12.13;10.23;;;;;;;;;;4934320;29;20482;-94
2021/05/31 03:03:09;;;;;;;11.87;9.47;;;;;;;;;;4927414;29;20460;-94
2021/05/31 03:05:35;;;;;;;10.97;9.60;;;;;;;;;;4925000;29;20476;-95
2021/05/31 03:08:03;;;;;;;13.63;10.53;;;;;;;;;;4931255;29;20988;-95
2021/05/31 03:10:29;;;;;;;12.53;11.23;;;;;;;;;;4932264;29;20449;-95
2021/05/31 03:12:59;;;;;;;12.40;10.23;;;;;;;;;;4930858;29;20462;-94
2021/05/31 03:15:26;;;;;;;12.43;10.10;;;;;;;;;;4929084;29;20464;-95
2021/05/31 03:17:52;;;;;;;11.00;9.70;;;;;;;;;;4926596;29;20496;-96
2021/05/31 03:20:20;;;;;;;12.50;10.47;;;;;;;;;;4929162;29;20543;-95
2021/05/31 03:22:46;;;;;;;12.03;10.73;;;;;;;;;;4932080;29;20459;-96
2021/05/31 03:25:12;;;;;;;12.13;10.00;;;;;;;;;;4926366;29;20463;-95
2021/05/31 03:27:39;;;;;;;12.50;10.47;;;;;;;;;;4931608;29;20476;-96
2021/05/31 03:30:13;;;;;;;15.07;11.67;;;;;;;;;;4928258;29;20469;-96
2021/05/31 03:32:39;;;;;;;11.47;10.27;;;;;;;;;;4934911;29;20538;-96
2021/05/31 03:35:07;;;;;;;11.07;9.83;;;;;;;;;;4933559;29;20459;-96
2021/05/31 03:37:33;;;;;;;14.03;10.17;;;;;;;;;;4932233;29;20470;-96
2021/05/31 03:39:59;;;;;;;12.40;10.07;;;;;;;;;;4936391;29;20495;-96
2021/05/31 03:42:25;;;;;;;16.43;10.93;;;;;;;;;;4929770;29;20464;-95
2021/05/31 03:44:51;;;;;;;12.33;11.00;;;;;;;;;;4929117;29;20451;-95
2021/05/31 03:47:19;;;;;;;11.30;10.20;;;;;;;;;;4932283;29;21034;-96
2021/05/31 03:49:45;;;;;;;12.13;9.90;;;;;;;;;;4928415;29;20456;-96
2021/05/31 03:52:11;;;;;;;12.20;10.90;;;;;;;;;;4933239;29;20463;-96
2021/05/31 03:54:37;;;;;;;14.20;11.50;;;;;;;;;;4930168;29;20468;-94
2021/05/31 03:57:03;;;;;;;13.23;11.83;;;;;;;;;;4931464;29;20456;-96
2021/05/31 03:59:30;;;;;;;17.07;11.67;;;;;;;;;;4924837;29;20487;-96
2021/05/31 04:01:56;;;;;;;15.50;12.50;;;;;;;;;;4935801;29;20452;-96
2021/05/31 04:04:24;;;;;;;12.47;10.97;;;;;;;;;;4939966;29;20475;-96
2021/05/31 04:07:22;;;;;;;14.83;11.20;;;;;;;;;;4924209;29;20535;-93
2021/05/31 04:12:27;;;;;;;11.23;9.90;;;;;;;;;;4928314;29;20460;-95
2021/05/31 04:14:53;;;;;;;11.70;10.30;;;;;;;;;;4948462;29;20948;-96
2021/05/31 04:17:19;;;;;;;12.10;10.27;;;;;;;;;;4947879;29;20447;-95
2021/05/31 04:19:46;;;;;;;14.77;11.67;;;;;;;;;;4936924;29;20480;-95
2021/05/31 04:22:13;;;;;;;12.30;11.00;;;;;;;;;;4939952;29;20440;-94
2021/05/31 04:24:39;;;;;;;12.50;10.90;;;;;;;;;;4927902;29;20475;-96
2021/05/31 04:27:10;;;;;;;12.10;10.80;;;;;;;;;;4937979;29;20460;-94
2021/05/31 04:29:36;;;;;;;12.03;10.33;;;;;;;;;;4932280;29;20491;-96
2021/05/31 04:32:03;;;;;;;12.77;10.17;;;;;;;;;;4943589;29;20456;-96
2021/05/31 04:34:29;;;;;;;10.90;9.30;;;;;;;;;;4934503;29;20479;-95
2021/05/31 04:36:56;;;;;;;9.63;8.57;;;;;;;;;;4941831;29;20452;-95
2021/05/31 04:39:23;;;;;;;11.90;9.93;;;;;;;;;;4932206;29;20503;-96
2021/05/31 04:41:49;;;;;;;11.60;10.03;;;;;;;;;;4936187;29;20472;-94
2021/05/31 04:44:15;;;;;;;12.10;9.73;;;;;;;;;;4929403;29;20464;-96
2021/05/31 04:46:41;;;;;;;10.90;9.80;;;;;;;;;;4942514;29;20510;-96
2021/05/31 04:49:07;;;;;;;10.77;9.70;;;;;;;;;;4944110;29;20512;-94
2021/05/31 04:51:33;;;;;;;11.13;10.00;;;;;;;;;;4945057;29;20453;-94
2021/05/31 04:54:00;;;;;;;12.73;9.70;;;;;;;;;;4926336;29;20463;-94
2021/05/31 04:56:27;;;;;;;12.30;10.80;;;;;;;;;;4928308;29;20866;-94
2021/05/31 04:58:53;;;;;;;10.93;9.83;;;;;;;;;;4934804;29;20502;-95
2021/05/31 05:01:19;;;;;;;11.53;9.90;;;;;;;;;;4928576;29;20457;-94
2021/05/31 05:03:45;;;;;;;10.80;9.70;;;;;;;;;;4930861;29;20449;-96
2021/05/31 05:06:11;;;;;;;10.70;9.70;;;;;;;;;;4926105;29;20465;-96
2021/05/31 05:08:38;;;;;;;11.03;9.93;;;;;;;;;;4928243;29;20456;-95
2021/05/31 05:11:05;;;;;;;11.60;10.40;;;;;;;;;;4926797;29;20488;-94
2021/05/31 05:13:32;;;;;;;17.33;11.87;;;;;;;;;;4928398;29;20490;-96
2021/05/31 05:15:58;;;;;;;13.77;10.60;;;;;;;;;;4927230;29;20460;-95
2021/05/31 05:18:24;;;;;;;12.67;11.00;;;;;;;;;;4934222;29;20523;-94
2021/05/31 05:20:50;;;;;;;10.90;9.43;;;;;;;;;;4927145;29;20464;-96
2021/05/31 05:23:16;;;;;;;11.47;10.33;;;;;;;;;;4928339;29;20452;-96
2021/05/31 05:25:42;;;;;;;12.07;10.80;;;;;;;;;;4913174;29;22490;-95
2021/05/31 05:28:09;;;;;;;17.67;10.37;;;;;;;;;;4934718;29;20937;-95
2021/05/31 05:30:36;;;;;;;11.90;10.17;;;;;;;;;;4927350;29;20464;-93
2021/05/31 05:33:02;;;;;;;16.27;11.80;;;;;;;;;;4941373;29;20456;-95
2021/05/31 05:35:32;;;;;;;11.13;10.00;;;;;;;;;;4940114;29;20956;-96
2021/05/31 05:38:15;;;;;;;13.40;10.73;;;;;;;;;;4944977;29;20491;-94
2021/05/31 05:41:11;;;;;;;12.93;11.67;;;;;;;;;;4938868;29;20479;-95
2021/05/31 05:46:30;;;;;;;12.00;10.80;;;;;;;;;;4923618;29;20911;-96
2021/05/31 05:48:56;;;;;;;12.97;10.90;;;;;;;;;;4938921;29;20609;-96
2021/05/31 05:51:22;;;;;;;11.67;10.43;;;;;;;;;;4940228;29;20463;-96
2021/05/31 06:02:32;;;;;;;11.77;10.40;;;;;;;;;;4952912;23;20516;-96
2021/05/31 06:05:02;;;;;;;12.50;10.67;;;;;;;;;;4930103;29;20476;-96
2021/05/31 06:07:40;;;;;;;11.73;10.53;;;;;;;;;;4928540;29;20464;-96
2021/05/31 06:20:59;;;;;;;11.87;10.27;;;;;;;;;;4998765;23;20498;-95
2021/05/31 06:23:58;;;;;;;12.60;9.47;;;;;;;;;;5026565;23;20501;-95
2021/05/31 06:26:33;;;;;;;8.97;8.07;;;;;;;;;;4994496;28;20429;-95
2021/05/31 06:29:25;;;;;;;16.17;9.30;;;;;;;;;;4985782;28;20438;-96
2021/05/31 06:37:27;;;;;;;11.23;8.50;;;;;;;;;;5279893;23;20504;-96
2021/05/31 06:43:08;;;;;;;8.60;7.80;;;;;;;;;;4945319;23;20478;-96
2021/05/31 06:45:37;;;;;;;9.30;8.40;;;;;;;;;;4971747;28;20434;-96
2021/05/31 06:48:07;;;;;;;10.67;7.90;;;;;;;;;;4971460;23;20479;-96
2021/05/31 06:53:28;;;;;;;7.60;6.90;;;;;;;;;;4659762;23;20574;-93
2021/05/31 06:56:03;;;;;;;7.73;7.03;;;;;;;;;;4951166;28;20445;-96
2021/05/31 06:58:29;;;;;;;9.60;6.70;;;;;;;;;;4961369;28;20481;-95
2021/05/31 07:00:57;;;;;;;7.60;6.77;;;;;;;;;;4952772;23;20497;-96
2021/05/31 07:03:23;;;;;;;6.50;5.90;;;;;;;;;;4944740;29;20439;-94
2021/05/31 07:05:49;;;;;;;6.87;6.17;;;;;;;;;;4936276;29;20470;-94
2021/05/31 07:08:15;;;;;;;6.30;5.70;;;;;;;;;;4944834;29;20467;-94
2021/05/31 07:13:12;;;;;;;6.82;6.22;;;;;;;;;;4962171;23;20542;-91
2021/05/31 07:15:40;;;;;;;6.10;5.50;;;;;;;;;;4933700;29;20227;-93
2021/05/31 07:18:06;;;;;;;8.73;5.80;;;;;;;;;;4938786;29;20788;-93
2021/05/31 07:20:32;;;;;;;6.70;6.10;;;;;;;;;;4925850;29;20475;-92
2021/05/31 07:22:59;;;;;;;6.70;6.03;;;;;;;;;;4933931;29;20470;-95
2021/05/31 07:25:28;;;;;;;6.27;5.67;;;;;;;;;;4930150;29;20461;-96
2021/05/31 07:27:57;;;;;;;6.77;5.67;;;;;;;;;;4932191;29;20428;-96
2021/05/31 07:30:27;;;;;;;6.13;5.63;;;;;;;;;;4937107;29;20463;-92
2021/05/31 07:32:53;;;;;;;6.80;6.10;;;;;;;;;;4918426;29;20549;-95
2021/05/31 07:35:19;;;;;;;7.30;6.13;;;;;;;;;;4925212;29;20488;-92
2021/05/31 07:37:45;;;;;;;6.43;5.83;;;;;;;;;;4934471;29;20963;-94
2021/05/31 07:40:13;;;;;;;9.00;5.60;;;;;;;;;;4935026;29;20498;-95
2021/05/31 07:42:47;;;;;;;6.60;5.67;;;;;;;;;;4931560;29;20456;-94
2021/05/31 07:45:13;;;;;;;5.67;5.03;;;;;;;;;;4942374;29;20514;-92
2021/05/31 07:47:42;;;;;;;6.30;5.80;;;;;;;;;;4928063;29;20468;-92
2021/05/31 07:50:15;;;;;;;5.70;5.30;;;;;;;;;;4942662;29;20457;-95
2021/05/31 07:52:42;;;;;;;5.80;5.30;;;;;;;;;;4927203;29;20524;-93
2021/05/31 07:57:52;;;;;;;5.33;4.80;;;;;;;;;;4938496;29;20467;-94
2021/05/31 08:00:19;;;;;;;5.07;4.57;;;;;;;;;;4946129;29;20498;-92
2021/05/31 08:02:48;;;;;;;5.60;4.90;;;;;;;;;;4957220;23;20578;-96
2021/05/31 08:05:17;;;;;;;5.50;5.00;;;;;;;;;;4964524;29;20478;-93
2021/05/31 08:10:32;;;;;;;5.97;4.20;;;;;;;;;;5057980;23;20493;-94
2021/05/31 08:18:39;;;;;;;4.53;4.13;;;;;;;;;;4940735;29;20475;-95
2021/05/31 08:26:36;;;;;;;4.80;4.40;;;;;;;;;;5068535;23;20489;-96
2021/05/31 08:29:02;;;;;;;4.90;4.50;;;;;;;;;;4956364;29;20463;-95
2021/05/31 08:31:28;;;;;;;8.00;4.70;;;;;;;;;;4961366;29;20455;-92
2021/05/31 08:33:56;;;;;;;5.20;4.70;;;;;;;;;;4955580;29;20535;-94
2021/05/31 08:36:22;;;;;;;4.17;3.87;;;;;;;;;;4962181;29;20459;-93
2021/05/31 08:38:49;;;;;;;4.53;4.13;;;;;;;;;;4954120;29;20499;-92
2021/05/31 08:41:15;;;;;;;5.53;4.90;;;;;;;;;;4950611;29;20455;-90
2021/05/31 08:43:41;;;;;;;5.97;4.53;;;;;;;;;;4959478;29;20522;-92
2021/05/31 08:46:09;;;;;;;4.80;4.40;;;;;;;;;;4958825;29;20455;-93
2021/05/31 08:48:37;;;;;;;4.67;4.27;;;;;;;;;;4945898;29;20487;-94
2021/05/31 08:51:04;;;;;;;4.23;3.60;;;;;;;;;;4969418;29;20443;-92
2021/05/31 08:53:30;;;;;;;4.63;4.33;;;;;;;;;;4966067;28;20825;-93
2021/05/31 08:55:57;;;;;;;4.20;3.90;;;;;;;;;;4957119;29;20450;-94
2021/05/31 08:58:30;;;;;;;4.30;4.00;;;;;;;;;;4962537;29;20454;-94
2021/05/31 09:00:56;;;;;;;4.00;3.70;;;;;;;;;;4957463;28;20471;-91
2021/05/31 09:03:32;;;;;;;4.80;4.00;;;;;;;;;;4949081;29;20526;-92
2021/05/31 09:05:59;;;;;;;5.70;4.50;;;;;;;;;;4958685;28;20461;-95
2021/05/31 09:08:27;;;;;;;5.97;4.50;;;;;;;;;;4963382;29;20455;-94
2021/05/31 09:10:55;;;;;;;5.47;4.90;;;;;;;;;;4960900;28;20478;-95
2021/05/31 09:13:26;;;;;;;5.27;4.10;;;;;;;;;;4956391;28;20456;-91
2021/05/31 09:16:02;;;;;;;4.50;3.73;;;;;;;;;;4944767;29;20467;-95
2021/05/31 09:18:28;;;;;;;4.33;4.03;;;;;;;;;;4957239;28;20483;-92
2021/05/31 09:20:54;;;;;;;3.90;3.60;;;;;;;;;;4954097;29;20435;-93
2021/05/31 09:23:21;;;;;;;4.73;3.97;;;;;;;;;;4962659;29;20451;-91
2021/05/31 09:25:51;;;;;;;4.10;3.80;;;;;;;;;;4948806;29;20479;-92
2021/05/31 09:28:18;;;;;;;3.93;3.63;;;;;;;;;;4957536;29;20459;-94
2021/05/31 09:30:45;;;;;;;5.97;4.10;;;;;;;;;;4949649;29;20516;-95
2021/05/31 09:35:46;;;;;;;4.10;3.70;;;;;;;;;;5054782;23;20507;-93
2021/05/31 09:38:14;;;;;;;4.03;3.73;;;;;;;;;;4961640;29;20470;-94
2021/05/31 09:40:50;;;;;;;7.57;3.97;;;;;;;;;;4958857;29;20496;-93
2021/05/31 09:43:17;;;;;;;5.47;3.50;;;;;;;;;;4950785;29;20522;-94
2021/05/31 09:45:47;;;;;;;3.33;3.13;;;;;;;;;;4950835;29;20459;-94
2021/05/31 09:48:31;;;;;;;4.00;3.60;;;;;;;;;;4952491;29;20451;-95
2021/05/31 09:50:58;;;;;;;3.83;3.50;;;;;;;;;;4955903;29;21287;-92
2021/05/31 09:53:34;;;;;;;3.80;3.50;;;;;;;;;;4954321;29;20455;-93
2021/05/31 09:59:15;;;;;;;3.93;3.50;;;;;;;;;;4964833;28;20488;-92
2021/05/31 10:04:34;;;;;;;6.20;3.63;;;;;;;;;;4962357;29;20454;-95
2021/05/31 10:07:13;;;;;;;4.40;4.00;;;;;;;;;;4967092;29;20551;-95
2021/05/31 10:09:39;;;;;;;3.57;3.27;;;;;;;;;;4963196;29;20497;-93
2021/05/31 10:12:08;;;;;;;3.80;3.50;;;;;;;;;;4965467;29;20497;-93
2021/05/31 10:14:35;;;;;;;4.60;3.83;;;;;;;;;;4968436;29;20481;-93
2021/05/31 10:17:08;;;;;;;5.60;3.57;;;;;;;;;;4965438;29;20477;-94
2021/05/31 10:19:40;;;;;;;4.20;3.80;;;;;;;;;;4962706;29;20515;-94
2021/05/31 10:22:20;;;;;;;3.57;3.20;;;;;;;;;;4965972;29;20479;-94
2021/05/31 10:24:54;;;;;;;3.80;3.50;;;;;;;;;;4947490;29;20546;-94
2021/05/31 10:27:23;;;;;;;7.53;3.50;;;;;;;;;;4957104;29;20443;-95
2021/05/31 10:30:02;;;;;;;4.43;4.03;;;;;;;;;;4970038;29;20462;-93
2021/05/31 10:32:36;;;;;;;4.20;3.90;;;;;;;;;;4955324;29;20453;-93
2021/05/31 10:38:15;;;;;;;3.77;3.50;;;;;;;;;;4951198;29;20480;-96
2021/05/31 10:40:59;;;;;;;3.87;3.57;;;;;;;;;;4955894;28;20555;-96
2021/05/31 10:43:27;;;;;;;3.50;3.30;;;;;;;;;;4953158;29;20450;-95
2021/05/31 10:46:14;;;;;;;3.80;3.50;;;;;;;;;;4948135;29;20498;-95
2021/05/31 10:57:34;;;;;;;4.73;3.83;;;;;;;;;;4952933;29;20506;-95
2021/05/31 11:00:01;;;;;;;4.07;3.60;;;;;;;;;;4939146;29;20495;-96
2021/05/31 11:02:31;;;;;;;3.53;3.23;;;;;;;;;;4937604;29;20463;-94
2021/05/31 11:05:07;;;;;;;6.30;4.97;;;;;;;;;;4953632;29;20475;-95
2021/05/31 11:07:33;;;;;;;4.23;3.93;;;;;;;;;;4968342;29;20529;-93
2021/05/31 11:10:15;;;;;;;4.93;4.63;;;;;;;;;;4958075;29;20459;-94
2021/05/31 11:12:42;;;;;;;4.47;4.07;;;;;;;;;;4958286;29;20443;-95
2021/05/31 11:15:10;;;;;;;9.47;3.73;;;;;;;;;;4964976;29;20466;-92
2021/05/31 11:17:47;;;;;;;4.00;3.67;;;;;;;;;;4970131;29;20533;-93
2021/05/31 11:20:27;;;;;;;4.30;4.00;;;;;;;;;;4953562;29;20494;-93
2021/05/31 11:22:56;;;;;;;6.20;5.60;;;;;;;;;;4969492;29;20482;-93
2021/05/31 11:25:24;;;;;;;4.33;4.03;;;;;;;;;;4961890;29;20463;-96
2021/05/31 11:27:55;;;;;;;4.50;4.10;;;;;;;;;;4964168;29;20458;-96
2021/05/31 11:30:26;;;;;;;6.20;4.10;;;;;;;;;;4949844;29;20976;-95
2021/05/31 11:32:58;;;;;;;4.07;3.77;;;;;;;;;;4964399;29;20474;-95
2021/05/31 11:38:26;;;;;;;4.10;3.70;;;;;;;;;;5007015;23;20480;-95
2021/05/31 11:49:48;;;;;;;3.37;3.10;;;;;;;;;;4988994;28;21048;-94
2021/05/31 11:52:17;;;;;;;3.50;3.20;;;;;;;;;;4982065;28;20438;-94
2021/05/31 12:03:34;;;;;;;3.10;2.90;;;;;;;;;;4949111;29;20458;-96
2021/05/31 12:09:07;;;;;;;3.30;3.10;;;;;;;;;;2229376;23;20530;-94
2021/05/31 12:11:35;;;;;;;3.43;3.23;;;;;;;;;;4940758;29;20484;-94
2021/05/31 12:25:22;;;;;;;3.20;3.00;;;;;;;;;;5082269;23;20507;-94
2021/05/31 12:27:54;;;;;;;5.10;3.37;;;;;;;;;;4977837;28;20455;-96
2021/05/31 12:33:10;;;;;;;2.60;2.40;;;;;;;;;;4987249;28;20465;-96
2021/05/31 12:35:58;;;;;;;3.10;2.90;;;;;;;;;;4972223;28;20514;-96
2021/05/31 12:38:58;;;;;;;4.23;3.10;;;;;;;;;;5223654;23;20939;-94
2021/05/31 12:42:00;;;;;;;3.80;3.17;;;;;;;;;;4954156;28;20478;-96
2021/05/31 12:44:46;;;;;;;3.37;3.07;;;;;;;;;;5024532;23;20490;-94
2021/05/31 12:47:17;;;;;;;5.20;2.80;;;;;;;;;;4952524;23;20479;-95
2021/05/31 12:50:05;;;;;;;3.53;3.27;;;;;;;;;;4944355;23;20538;-94
2021/05/31 12:57:58;;;;;;;3.23;2.93;;;;;;;;;;4950003;26;20503;-96
2021/05/31 13:00:25;;;;;;;4.30;2.83;;;;;;;;;;4969136;29;20547;-95
2021/05/31 13:02:58;;;;;;;2.93;2.73;;;;;;;;;;4957461;29;20449;-95
2021/05/31 13:05:30;;;;;;;3.03;2.83;;;;;;;;;;4943896;29;20438;-96
2021/05/31 13:08:03;;;;;;;2.93;2.73;;;;;;;;;;4962046;29;20463;-96
2021/05/31 13:10:33;;;;;;;4.13;3.70;;;;;;;;;;4952888;29;20494;-96
2021/05/31 13:18:29;;;;;;;4.57;4.17;;;;;;;;;;4958581;29;20455;-96
2021/05/31 13:20:59;;;;;;;4.70;3.27;;;;;;;;;;4960341;29;20524;-92
2021/05/31 13:23:27;;;;;;;3.83;3.53;;;;;;;;;;4957873;29;20462;-94
2021/05/31 13:25:56;;;;;;;3.40;3.10;;;;;;;;;;4947656;29;20463;-92
2021/05/31 13:28:31;;;;;;;3.80;3.50;;;;;;;;;;4968736;29;20449;-94
2021/05/31 13:30:58;;;;;;;4.07;3.70;;;;;;;;;;4954381;29;20460;-93
2021/05/31 13:33:25;;;;;;;3.80;3.50;;;;;;;;;;4958782;28;20471;-92
2021/05/31 13:35:52;;;;;;;2.90;2.70;;;;;;;;;;4939422;29;20470;-95
2021/05/31 13:38:18;;;;;;;3.70;3.37;;;;;;;;;;4954472;29;20663;-93
2021/05/31 13:40:49;;;;;;;4.50;4.10;;;;;;;;;;4967664;29;20494;-94
2021/05/31 13:43:16;;;;;;;4.60;3.47;;;;;;;;;;4958480;29;20451;-93
2021/05/31 13:51:32;;;;;;;6.10;5.60;;;;;;;;;;5155164;23;20486;-96
2021/05/31 13:59:46;;;;;;;5.70;5.20;;;;;;;;;;5013948;23;20517;-96
2021/05/31 14:10:37;;;;;;;3.10;2.83;;;;;;;;;;4957227;26;20569;-95
2021/05/31 14:15:44;;;;;;;2.50;2.30;;;;;;;;;;4950882;29;20517;-94
2021/05/31 14:18:43;;;;;;;8.50;2.70;;;;;;;;;;5001672;23;20503;-95
2021/05/31 14:21:30;;;;;;;2.90;2.57;;;;;;;;;;4967679;28;20442;-93
2021/05/31 14:23:56;;;;;;;2.67;2.47;;;;;;;;;;4981382;28;20532;-94
2021/05/31 14:26:24;;;;;;;3.27;3.07;;;;;;;;;;4975899;28;20434;-95
2021/05/31 14:29:04;;;;;;;4.07;3.80;;;;;;;;;;4982003;28;20457;-94
2021/05/31 14:45:36;;;;;;;3.90;2.70;;;;;;;;;;4971647;23;20510;-96
2021/05/31 14:48:10;;;;;;;6.80;5.53;;;;;;;;;;4970207;23;20478;-94
2021/05/31 14:53:24;;;;;;;3.20;3.00;;;;;;;;;;4933387;29;20452;-94
2021/05/31 14:55:52;;;;;;;3.60;3.30;;;;;;;;;;4934499;29;20456;-95
2021/05/31 14:58:24;;;;;;;3.83;3.30;;;;;;;;;;4936468;29;20439;-96
2021/05/31 15:00:52;;;;;;;3.90;2.90;;;;;;;;;;4944162;29;20541;-96
2021/05/31 15:03:19;;;;;;;3.37;3.07;;;;;;;;;;4930458;29;20467;-95
2021/05/31 15:05:45;;;;;;;3.63;3.27;;;;;;;;;;4942157;29;20457;-93
2021/05/31 15:08:19;;;;;;;3.60;3.30;;;;;;;;;;4950563;29;20437;-95
2021/05/31 15:10:50;;;;;;;3.80;3.50;;;;;;;;;;4939878;29;20890;-96
2021/05/31 15:13:27;;;;;;;3.30;2.80;;;;;;;;;;4935182;29;20444;-94
2021/05/31 15:16:13;;;;;;;4.67;3.33;;;;;;;;;;4941298;29;20468;-96
2021/05/31 15:18:41;;;;;;;3.00;2.70;;;;;;;;;;4936176;29;20481;-96
2021/05/31 15:21:08;;;;;;;3.17;2.87;;;;;;;;;;4935300;29;20495;-96
2021/05/31 15:23:43;;;;;;;4.27;2.87;;;;;;;;;;4941175;29;20429;-96
2021/05/31 15:26:11;;;;;;;3.93;2.93;;;;;;;;;;5152179;23;20493;-95
2021/05/31 15:28:41;;;;;;;3.17;2.93;;;;;;;;;;4972361;28;20451;-96
2021/05/31 15:31:11;;;;;;;3.00;2.80;;;;;;;;;;4952994;29;20466;-96
2021/05/31 15:36:28;;;;;;;3.07;2.87;;;;;;;;;;4964929;23;20502;-96
2021/05/31 15:39:00;;;;;;;3.43;2.90;;;;;;;;;;4957821;23;20481;-96
2021/05/31 15:44:12;;;;;;;2.80;2.60;;;;;;;;;;4942359;28;20452;-96
2021/05/31 15:46:38;;;;;;;4.47;4.13;;;;;;;;;;4951272;29;20483;-95
2021/05/31 15:49:05;;;;;;;4.30;3.40;;;;;;;;;;4944304;29;21118;-90
2021/05/31 15:51:31;;;;;;;3.77;3.37;;;;;;;;;;4956295;23;20503;-96
2021/05/31 15:53:57;;;;;;;5.50;3.40;;;;;;;;;;4924780;29;20439;-94
2021/05/31 15:56:23;;;;;;;3.90;3.50;;;;;;;;;;4923447;29;20463;-93
2021/05/31 15:58:50;;;;;;;3.90;3.10;;;;;;;;;;4925043;29;20453;-91
2021/05/31 16:01:16;;;;;;;5.87;5.47;;;;;;;;;;4934981;29;20500;-95
2021/05/31 16:03:43;;;;;;;4.30;3.90;;;;;;;;;;4937289;29;20456;-91
2021/05/31 16:06:11;;;;;;;3.60;3.40;;;;;;;;;;4943470;29;20474;-95
2021/05/31 16:08:37;;;;;;;4.37;3.93;;;;;;;;;;4932384;29;20463;-95
2021/05/31 16:11:04;;;;;;;3.90;3.60;;;;;;;;;;4946465;23;20561;-94
2021/05/31 16:13:30;;;;;;;3.90;3.60;;;;;;;;;;4943417;29;20448;-95
2021/05/31 16:15:56;;;;;;;8.80;8.00;;;;;;;;;;4954805;29;20491;-93
2021/05/31 16:18:23;;;;;;;10.27;9.47;;;;;;;;;;4953023;29;20465;-95
2021/05/31 16:20:50;;;;;;;8.43;7.60;;;;;;;;;;4951378;29;20526;-92
2021/05/31 16:23:23;;;;;;;6.03;5.50;;;;;;;;;;4955034;29;20464;-93
2021/05/31 16:25:49;;;;;;;4.30;4.00;;;;;;;;;;4954807;29;20464;-94
2021/05/31 16:28:15;;;;;;;3.93;3.63;;;;;;;;;;4938568;29;20472;-93
2021/05/31 16:30:42;;;;;;;3.70;3.50;;;;;;;;;;4955753;29;20944;-94
2021/05/31 16:33:08;;;;;;;3.80;3.50;;;;;;;;;;4958073;29;20459;-93
2021/05/31 16:35:34;;;;;;;4.43;4.03;;;;;;;;;;4948041;29;20452;-93
2021/05/31 16:38:00;;;;;;;3.80;3.50;;;;;;;;;;4962465;29;20486;-95
2021/05/31 16:40:28;;;;;;;3.67;3.23;;;;;;;;;;4956610;29;20499;-95
2021/05/31 16:42:56;;;;;;;7.63;3.87;;;;;;;;;;4948936;29;20478;-94
2021/05/31 16:45:23;;;;;;;4.23;3.30;;;;;;;;;;4961951;29;20470;-94
2021/05/31 16:47:50;;;;;;;3.17;2.97;;;;;;;;;;4960741;29;20462;-91
2021/05/31 16:50:16;;;;;;;5.33;2.97;;;;;;;;;;4946582;29;20489;-94
2021/05/31 16:52:42;;;;;;;7.40;2.97;;;;;;;;;;4966871;29;20623;-94
2021/05/31 16:55:08;;;;;;;3.90;2.83;;;;;;;;;;4962462;29;20869;-91
2021/05/31 16:57:37;;;;;;;6.47;3.20;;;;;;;;;;4967283;29;20455;-95
2021/05/31 17:00:05;;;;;;;3.00;2.50;;;;;;;;;;4958428;29;20495;-94
2021/05/31 17:02:31;;;;;;;9.90;4.70;;;;;;;;;;4955755;29;20458;-93
2021/05/31 17:04:59;;;;;;;11.13;4.70;;;;;;;;;;4956050;29;20468;-94
2021/05/31 17:07:26;;;;;;;7.60;4.00;;;;;;;;;;4962815;29;20487;-93
2021/05/31 17:09:55;;;;;;;6.97;3.43;;;;;;;;;;4950601;29;20586;-95
2021/05/31 17:15:22;;;;;;;5.97;4.93;;;;;;;;;;4951441;29;22710;-96
2021/05/31 17:20:40;;;;;;;4.20;3.90;;;;;;;;;;4874830;29;20498;-94
2021/05/31 17:23:06;;;;;;;4.93;4.53;;;;;;;;;;4938962;29;20468;-95
2021/05/31 17:25:32;;;;;;;5.70;4.50;;;;;;;;;;4925487;29;21643;-95
2021/05/31 17:27:58;;;;;;;5.50;4.40;;;;;;;;;;4946326;29;20450;-95
2021/05/31 17:30:27;;;;;;;4.57;4.17;;;;;;;;;;4945292;29;20471;-94
2021/05/31 17:32:53;;;;;;;4.50;3.97;;;;;;;;;;4940770;29;20460;-96
2021/05/31 17:35:20;;;;;;;4.70;4.17;;;;;;;;;;4944891;29;20452;-95
2021/05/31 17:37:46;;;;;;;4.90;4.50;;;;;;;;;;4939373;29;20455;-95
2021/05/31 17:40:13;;;;;;;5.13;4.73;;;;;;;;;;4943681;29;20834;-96
2021/05/31 17:42:40;;;;;;;8.17;4.67;;;;;;;;;;4936492;29;20459;-95